createdAt,value
2022-08-17T00:00:43.125Z,100.00
2022-08-17T00:03:17.500Z,100.00
2022-08-17T00:05:49.620Z,100.00
2022-08-17T00:08:21.287Z,100.00
2022-08-17T00:10:51.420Z,100.00
2022-08-17T00:13:26.088Z,100.00
2022-08-17T00:15:58.975Z,100.00
2022-08-17T00:18:58.346Z,100.00
2022-08-17T00:21:23.781Z,100.00
2022-08-17T00:23:55.437Z,100.00
2022-08-17T00:26:43.656Z,100.00
2022-08-17T00:29:19.757Z,100.00
2022-08-17T00:31:50.062Z,100.00
2022-08-17T00:34:19.382Z,100.00
2022-08-17T00:36:48.415Z,100.00
2022-08-17T00:39:17.380Z,100.00
2022-08-17T00:41:48.727Z,100.00
2022-08-17T00:44:19.894Z,100.00
2022-08-17T00:46:48.525Z,100.00
2022-08-17T00:49:19.499Z,100.00
2022-08-17T00:51:53.655Z,100.00
2022-08-17T00:54:28.706Z,100.00
2022-08-17T00:57:02.379Z,100.00
2022-08-17T00:59:40.568Z,100.00
2022-08-17T01:02:11.354Z,100.00
2022-08-17T01:04:41.208Z,100.00
2022-08-17T01:07:13.541Z,100.00
2022-08-17T01:09:44.271Z,100.00
2022-08-17T01:12:14.147Z,100.00
2022-08-17T01:14:44.420Z,100.00
2022-08-17T01:17:13.344Z,100.00
2022-08-17T01:19:44.082Z,100.00
2022-08-17T01:22:22.756Z,100.00
2022-08-17T01:24:54.492Z,100.00
2022-08-17T01:27:23.429Z,100.00
2022-08-17T01:30:57.465Z,100.00
2022-08-17T01:32:57.070Z,100.00
2022-08-17T01:35:25.719Z,100.00
2022-08-17T01:37:56.196Z,100.00
2022-08-17T01:40:30.351Z,100.00
2022-08-17T01:43:01.875Z,100.00
2022-08-17T01:45:35.157Z,100.00
2022-08-17T01:48:03.640Z,100.00
2022-08-17T01:50:35.534Z,100.00
2022-08-17T01:53:07.193Z,100.00
2022-08-17T01:55:41.730Z,100.00
2022-08-17T01:58:10.533Z,100.00
2022-08-17T02:00:59.782Z,100.00
2022-08-17T02:03:31.068Z,100.00
2022-08-17T02:06:00.476Z,100.00
2022-08-17T02:08:37.324Z,100.00
2022-08-17T02:11:16.097Z,100.00
2022-08-17T02:13:45.547Z,100.00
2022-08-17T02:16:15.818Z,100.00
2022-08-17T02:18:44.978Z,100.00
2022-08-17T02:21:15.181Z,100.00
2022-08-17T02:23:49.407Z,100.00
2022-08-17T02:26:25.901Z,100.00
2022-08-17T02:28:55.997Z,100.00
2022-08-17T02:31:24.586Z,100.00
2022-08-17T02:34:00.428Z,100.00
2022-08-17T02:36:34.217Z,100.00
2022-08-17T02:39:06.662Z,100.00
2022-08-17T02:41:35.682Z,100.00
2022-08-17T02:44:06.126Z,100.00
2022-08-17T02:46:35.407Z,100.00
2022-08-17T02:49:05.160Z,100.00
2022-08-17T02:51:34.310Z,100.00
2022-08-17T02:54:41.692Z,100.00
2022-08-17T02:56:53.560Z,100.00
2022-08-17T02:59:22.589Z,100.00
2022-08-17T03:01:51.564Z,100.00
2022-08-17T03:04:20.565Z,100.00
2022-08-17T03:06:50.445Z,100.00
2022-08-17T03:09:20.764Z,100.00
2022-08-17T03:11:53.168Z,100.00
2022-08-17T03:14:25.065Z,100.00
2022-08-17T03:16:55.259Z,100.00
2022-08-17T03:19:24.404Z,100.00
2022-08-17T03:21:55.198Z,100.00
2022-08-17T03:24:28.943Z,100.00
2022-08-17T03:26:58.554Z,100.00
2022-08-17T03:29:27.271Z,100.00
2022-08-17T03:31:55.852Z,100.00
2022-08-17T03:34:25.541Z,100.00
2022-08-17T03:36:54.953Z,100.00
2022-08-17T03:39:25.834Z,100.00
2022-08-17T03:41:54.903Z,100.00
2022-08-17T03:44:24.190Z,100.00
2022-08-17T03:47:10.693Z,100.00
2022-08-17T03:49:57.971Z,100.00
2022-08-17T03:52:44.100Z,100.00
2022-08-17T03:55:36.298Z,100.00
2022-08-17T03:58:05.340Z,100.00
2022-08-17T04:00:36.500Z,100.00
2022-08-17T04:03:09.063Z,100.00
2022-08-17T04:05:38.390Z,100.00
2022-08-17T04:08:10.473Z,100.00
2022-08-17T04:10:45.144Z,100.00
2022-08-17T04:13:15.511Z,100.00
2022-08-17T04:15:53.129Z,100.00
2022-08-17T04:18:22.148Z,100.00
2022-08-17T04:20:51.300Z,100.00
2022-08-17T04:23:20.939Z,100.00
2022-08-17T04:25:53.370Z,100.00
2022-08-17T04:28:22.571Z,100.00
2022-08-17T04:30:52.160Z,100.00
2022-08-17T04:33:24.314Z,100.00
2022-08-17T04:35:55.343Z,100.00
2022-08-17T04:38:27.497Z,100.00
2022-08-17T04:41:16.542Z,100.00
2022-08-17T04:43:48.155Z,100.00
2022-08-17T04:46:18.618Z,100.00
2022-08-17T04:48:51.041Z,100.00
2022-08-17T04:51:22.776Z,100.00
2022-08-17T04:53:54.430Z,100.00
2022-08-17T04:56:27.391Z,100.00
2022-08-17T04:58:59.083Z,100.00
2022-08-17T05:01:29.691Z,100.00
2022-08-17T05:04:02.382Z,100.00
2022-08-17T05:06:50.006Z,100.00
2022-08-17T05:09:19.876Z,100.00
2022-08-17T05:11:50.881Z,100.00
2022-08-17T05:14:32.854Z,100.00
2022-08-17T05:17:07.359Z,100.00
2022-08-17T05:19:41.312Z,100.00
2022-08-17T05:22:10.203Z,100.00
2022-08-17T05:24:43.658Z,100.00
2022-08-17T05:27:24.694Z,100.00
2022-08-17T05:30:00.919Z,100.00
2022-08-17T05:32:38.921Z,100.00
2022-08-17T05:35:17.806Z,100.00
2022-08-17T05:37:46.944Z,100.00
2022-08-17T05:40:16.498Z,100.00
2022-08-17T05:42:47.363Z,100.00
2022-08-17T05:45:23.665Z,100.00
2022-08-17T05:48:09.276Z,100.00
2022-08-17T05:50:46.159Z,100.00
2022-08-17T05:53:24.440Z,100.00
2022-08-17T05:56:04.058Z,100.00
2022-08-17T05:58:42.741Z,100.00
2022-08-17T06:01:21.216Z,100.00
2022-08-17T06:03:54.977Z,100.00
2022-08-17T06:06:42.369Z,100.00
2022-08-17T06:09:36.624Z,100.00
2022-08-17T06:12:23.569Z,100.00
2022-08-17T06:15:14.936Z,100.00
2022-08-17T06:17:44.975Z,100.00
2022-08-17T06:20:16.323Z,100.00
2022-08-17T06:22:48.531Z,100.00
2022-08-17T06:25:20.300Z,100.00
2022-08-17T06:27:53.522Z,100.00
2022-08-17T06:30:26.289Z,100.00
2022-08-17T06:32:59.815Z,100.00
2022-08-17T06:35:34.437Z,100.00
2022-08-17T06:38:37.178Z,100.00
2022-08-17T06:41:15.146Z,100.00
2022-08-17T06:44:03.010Z,100.00
2022-08-17T06:46:39.432Z,100.00
2022-08-17T06:49:20.182Z,100.00
2022-08-17T06:51:54.466Z,100.00
2022-08-17T06:54:34.775Z,100.00
2022-08-17T06:57:14.748Z,100.00
2022-08-17T06:59:55.702Z,100.00
2022-08-17T07:03:02.809Z,100.00
2022-08-17T07:05:38.830Z,100.00
2022-08-17T07:08:15.131Z,100.00
2022-08-17T07:10:50.530Z,100.00
2022-08-17T07:13:31.347Z,100.00
2022-08-17T07:16:17.253Z,100.00
2022-08-17T07:18:48.613Z,100.00
2022-08-17T07:21:31.127Z,100.00
2022-08-17T07:24:28.103Z,100.00
2022-08-17T07:27:10.919Z,100.00
2022-08-17T07:29:44.253Z,100.00
2022-08-17T07:32:18.680Z,100.00
2022-08-17T07:35:41.069Z,100.00
2022-08-17T07:38:24.989Z,100.00
2022-08-17T07:41:06.691Z,100.00
2022-08-17T07:43:38.125Z,100.00
2022-08-17T07:46:37.524Z,100.00
2022-08-17T07:49:23.163Z,100.00
2022-08-17T07:52:24.146Z,100.00
2022-08-17T07:54:50.080Z,100.00
2022-08-17T07:57:37.224Z,100.00
2022-08-17T08:00:30.810Z,100.00
2022-08-17T08:03:13.473Z,100.00
2022-08-17T08:05:54.220Z,100.00
2022-08-17T08:08:28.690Z,100.00
2022-08-17T08:11:06.432Z,100.00
2022-08-17T08:13:40.680Z,100.00
2022-08-17T08:16:24.557Z,100.00
2022-08-17T08:18:58.102Z,100.00
2022-08-17T08:21:36.737Z,100.00
2022-08-17T08:24:24.524Z,100.00
2022-08-17T08:27:09.323Z,100.00
2022-08-17T08:29:47.629Z,100.00
2022-08-17T08:32:21.921Z,100.00
2022-08-17T08:35:04.130Z,100.00
2022-08-17T08:37:45.283Z,100.00
2022-08-17T08:40:31.614Z,100.00
2022-08-17T08:43:10.273Z,100.00
2022-08-17T08:45:52.341Z,100.00
2022-08-17T08:48:55.998Z,99.54
2022-08-17T08:51:39.015Z,99.71
2022-08-17T08:54:26.843Z,97.35
2022-08-17T09:00:08.172Z,100.00
2022-08-17T09:03:02.758Z,99.50
2022-08-17T09:05:44.324Z,100.00
2022-08-17T09:08:26.128Z,97.18
2022-08-17T09:11:03.277Z,95.83
2022-08-17T09:13:43.589Z,94.71
2022-08-17T09:16:17.623Z,96.33
2022-08-17T09:19:00.773Z,94.48
2022-08-17T09:21:47.888Z,92.24
2022-08-17T09:24:25.185Z,91.60
2022-08-17T09:27:00.187Z,93.39
2022-08-17T09:29:35.418Z,91.71
2022-08-17T09:32:10.750Z,90.01
2022-08-17T09:34:46.991Z,91.87
2022-08-17T09:37:24.343Z,89.32
2022-08-17T09:40:05.682Z,89.72
2022-08-17T09:42:43.995Z,89.79
2022-08-17T09:45:29.276Z,88.73
2022-08-17T09:48:04.902Z,87.34
2022-08-17T09:51:03.139Z,88.34
2022-08-17T09:53:33.357Z,90.74
2022-08-17T09:56:19.349Z,91.04
2022-08-17T09:59:14.811Z,91.14
2022-08-17T10:01:52.937Z,91.49
2022-08-17T10:04:33.813Z,91.87
2022-08-17T10:07:08.549Z,87.96
2022-08-17T10:09:45.958Z,85.28
2022-08-17T10:12:30.102Z,84.36
2022-08-17T10:15:09.846Z,85.37
2022-08-17T10:17:53.576Z,82.97
2022-08-17T10:20:27.688Z,83.26
2022-08-17T10:23:18.652Z,82.71
2022-08-17T10:26:10.047Z,83.16
2022-08-17T10:28:44.914Z,83.02
2022-08-17T10:31:40.800Z,78.75
2022-08-17T10:34:41.015Z,76.49
2022-08-17T10:37:25.404Z,80.26
2022-08-17T10:40:08.878Z,79.54
2022-08-17T10:42:47.311Z,79.45
2022-08-17T10:45:20.670Z,83.27
2022-08-17T10:48:05.104Z,80.45
2022-08-17T10:50:49.848Z,81.73
2022-08-17T10:53:55.846Z,81.01
2022-08-17T10:56:41.731Z,84.72
2022-08-17T10:59:10.609Z,82.31
2022-08-17T11:02:13.406Z,79.16
2022-08-17T11:04:59.837Z,75.40
2022-08-17T11:07:47.782Z,72.45
2022-08-17T11:10:51.916Z,74.00
2022-08-17T11:13:30.855Z,79.08
2022-08-17T11:16:13.285Z,81.37
2022-08-17T11:19:10.184Z,76.57
2022-08-17T11:22:15.545Z,74.63
2022-08-17T11:24:51.742Z,80.66
2022-08-17T11:27:28.125Z,82.94
2022-08-17T11:30:02.425Z,82.62
2022-08-17T11:32:39.102Z,84.93
2022-08-17T11:35:34.977Z,83.30
2022-08-17T11:38:16.445Z,86.18
2022-08-17T11:41:15.527Z,84.70
2022-08-17T11:44:02.132Z,85.35
2022-08-17T11:47:00.082Z,87.69
2022-08-17T11:50:01.731Z,86.65
2022-08-17T11:52:40.807Z,86.36
2022-08-17T11:55:34.430Z,87.63
2022-08-17T11:58:06.616Z,88.81
2022-08-17T12:00:51.577Z,86.97
2022-08-17T12:03:27.105Z,87.56
2022-08-17T12:06:05.783Z,88.08
2022-08-17T12:08:41.949Z,89.36
2022-08-17T12:11:19.101Z,89.86
2022-08-17T12:14:16.952Z,90.61
2022-08-17T12:16:59.992Z,90.00
2022-08-17T12:19:29.823Z,85.74
2022-08-17T12:22:05.587Z,82.88
2022-08-17T12:24:46.486Z,83.36
2022-08-17T12:27:48.938Z,82.16
2022-08-17T12:30:19.648Z,84.24
2022-08-17T12:32:50.355Z,80.77
2022-08-17T12:35:22.795Z,80.06
2022-08-17T12:37:52.982Z,75.96
2022-08-17T12:40:27.676Z,75.33
2022-08-17T12:42:59.339Z,75.16
2022-08-17T12:45:32.423Z,74.31
2022-08-17T12:48:02.826Z,74.50
2022-08-17T12:50:32.421Z,73.49
2022-08-17T12:53:02.880Z,72.89
2022-08-17T12:55:39.051Z,72.98
2022-08-17T12:58:14.346Z,73.51
2022-08-17T13:00:50.239Z,69.27
2022-08-17T13:03:21.214Z,71.14
2022-08-17T13:05:59.115Z,65.88
2022-08-17T13:08:31.481Z,69.75
2022-08-17T13:11:02.688Z,70.11
2022-08-17T13:13:33.138Z,69.87
2022-08-17T13:16:09.885Z,68.18
2022-08-17T13:18:45.314Z,67.01
2022-08-17T13:21:23.888Z,66.46
2022-08-17T13:23:58.822Z,67.71
2022-08-17T13:26:32.675Z,67.89
2022-08-17T13:29:03.148Z,66.72
2022-08-17T13:31:47.458Z,66.17
2022-08-17T13:34:44.536Z,65.06
2022-08-17T13:37:33.702Z,67.63
2022-08-17T13:40:25.831Z,67.23
2022-08-17T13:42:56.639Z,69.46
2022-08-17T13:46:08.781Z,62.99
2022-08-17T13:48:39.406Z,66.89
2022-08-17T13:51:22.634Z,65.86
2022-08-17T13:54:13.611Z,65.65
2022-08-17T13:56:55.419Z,66.29
2022-08-17T13:59:52.609Z,64.06
2022-08-17T14:02:20.316Z,67.97
2022-08-17T14:04:50.666Z,68.46
2022-08-17T14:07:29.744Z,66.60
2022-08-17T14:10:02.155Z,67.40
2022-08-17T14:12:33.246Z,65.92
2022-08-17T14:15:02.314Z,67.04
2022-08-17T14:17:35.002Z,67.40
2022-08-17T14:20:12.049Z,67.96
2022-08-17T14:22:45.664Z,67.82
2022-08-17T14:25:16.734Z,68.12
2022-08-17T14:27:52.893Z,69.54
2022-08-17T14:30:25.839Z,67.24
2022-08-17T14:32:58.293Z,68.20
2022-08-17T14:35:29.566Z,68.94
2022-08-17T14:37:58.689Z,68.33
2022-08-17T14:40:28.311Z,67.55
2022-08-17T14:42:58.079Z,68.81
2022-08-17T14:45:33.016Z,69.09
2022-08-17T14:48:05.794Z,69.70
2022-08-17T14:50:38.473Z,69.58
2022-08-17T14:53:08.642Z,70.03
2022-08-17T14:55:41.524Z,70.47
2022-08-17T14:58:10.510Z,70.13
2022-08-17T15:00:40.214Z,68.99
2022-08-17T15:03:08.837Z,70.02
2022-08-17T15:05:40.402Z,68.91
2022-08-17T15:08:09.395Z,68.37
2022-08-17T15:10:39.388Z,70.37
2022-08-17T15:13:19.260Z,70.61
2022-08-17T15:15:49.203Z,71.72
2022-08-17T15:18:19.100Z,70.43
2022-08-17T15:20:51.098Z,70.34
2022-08-17T15:23:22.413Z,71.07
2022-08-17T15:25:52.627Z,70.57
2022-08-17T15:28:23.171Z,69.90
2022-08-17T15:30:52.924Z,70.09
2022-08-17T15:33:30.414Z,71.34
2022-08-17T15:36:03.513Z,73.13
2022-08-17T15:38:35.465Z,74.99
2022-08-17T15:41:04.921Z,75.19
2022-08-17T15:43:34.148Z,76.23
2022-08-17T15:46:05.854Z,76.91
2022-08-17T15:48:42.462Z,77.83
2022-08-17T15:51:14.992Z,78.07
2022-08-17T15:53:45.311Z,78.33
2022-08-17T15:56:15.879Z,78.57
2022-08-17T15:58:47.061Z,78.99
2022-08-17T16:02:53.876Z,78.72
2022-08-17T16:04:26.897Z,79.89
2022-08-17T16:07:00.569Z,81.34
2022-08-17T16:09:29.723Z,81.12
2022-08-17T16:11:59.413Z,81.29
2022-08-17T16:14:33.578Z,81.95
2022-08-17T16:17:04.692Z,82.45
2022-08-17T16:19:34.521Z,83.39
2022-08-17T16:22:05.461Z,82.97
2022-08-17T16:24:34.955Z,83.42
2022-08-17T16:27:04.637Z,83.53
2022-08-17T16:29:42.538Z,84.38
2022-08-17T16:32:14.709Z,85.93
2022-08-17T16:34:44.250Z,85.98
2022-08-17T16:37:14.724Z,87.00
2022-08-17T16:39:43.631Z,88.03
2022-08-17T16:42:24.673Z,88.47
2022-08-17T16:44:54.790Z,88.70
2022-08-17T16:47:24.175Z,89.95
2022-08-17T16:49:53.491Z,91.15
2022-08-17T16:52:32.593Z,91.68
2022-08-17T16:55:04.471Z,92.05
2022-08-17T16:57:33.198Z,92.95
2022-08-17T17:00:02.156Z,93.21
2022-08-17T17:02:33.471Z,93.55
2022-08-17T17:05:13.252Z,93.75
2022-08-17T17:07:53.798Z,94.49
2022-08-17T17:10:25.438Z,94.44
2022-08-17T17:13:00.825Z,94.64
2022-08-17T17:15:45.165Z,95.50
2022-08-17T17:18:15.404Z,97.53
2022-08-17T17:20:51.253Z,95.84
2022-08-17T17:23:35.442Z,96.87
2022-08-17T17:26:13.055Z,97.17
2022-08-17T17:28:57.032Z,97.66
2022-08-17T17:31:31.006Z,97.47
2022-08-17T17:34:04.114Z,97.48
2022-08-17T17:36:39.818Z,97.96
2022-08-17T17:39:14.612Z,98.61
2022-08-17T17:41:48.483Z,98.26
2022-08-17T17:44:23.915Z,98.47
2022-08-17T17:46:56.257Z,98.99
2022-08-17T17:49:26.722Z,99.25
2022-08-17T17:52:07.874Z,99.73
2022-08-17T17:54:52.784Z,100.00
2022-08-17T17:57:34.454Z,100.00
2022-08-17T18:00:09.538Z,100.00
2022-08-17T18:02:51.882Z,100.00
2022-08-17T18:05:48.825Z,100.00
2022-08-17T18:08:37.666Z,100.00
2022-08-17T18:11:24.601Z,100.00
2022-08-17T18:14:14.590Z,100.00
2022-08-17T18:16:44.107Z,100.00
2022-08-17T18:19:15.283Z,100.00
2022-08-17T18:21:47.118Z,100.00
2022-08-17T18:24:15.954Z,100.00
2022-08-17T18:26:55.112Z,100.00
2022-08-17T18:29:34.546Z,100.00
2022-08-17T18:32:23.131Z,100.00
2022-08-17T18:34:54.479Z,100.00
2022-08-17T18:37:45.207Z,100.00
2022-08-17T18:40:34.716Z,100.00
2022-08-17T18:43:08.617Z,100.00
2022-08-17T18:45:41.890Z,100.00
2022-08-17T18:48:24.901Z,100.00
2022-08-17T18:50:55.347Z,100.00
2022-08-17T18:53:34.189Z,100.00
2022-08-17T18:56:24.691Z,100.00
2022-08-17T18:59:11.652Z,100.00
2022-08-17T19:01:54.610Z,100.00
2022-08-17T19:04:34.090Z,100.00
2022-08-17T19:07:09.387Z,100.00
2022-08-17T19:09:43.778Z,100.00
2022-08-17T19:12:27.211Z,100.00
2022-08-17T19:14:59.778Z,100.00
2022-08-17T19:17:37.985Z,100.00
2022-08-17T19:20:13.463Z,100.00
2022-08-17T19:23:10.428Z,100.00
2022-08-17T19:25:44.472Z,100.00
2022-08-17T19:28:22.641Z,100.00
2022-08-17T19:30:57.371Z,100.00
2022-08-17T19:33:28.090Z,100.00
2022-08-17T19:36:07.741Z,100.00
2022-08-17T19:38:43.737Z,100.00
2022-08-17T19:41:20.982Z,100.00
2022-08-17T19:44:00.595Z,100.00
2022-08-17T19:46:48.584Z,100.00
2022-08-17T19:49:33.045Z,100.00
2022-08-17T19:52:24.221Z,100.00
2022-08-17T19:55:01.974Z,100.00
2022-08-17T19:57:40.854Z,100.00
2022-08-17T20:00:13.438Z,100.00
2022-08-17T20:02:55.680Z,100.00
2022-08-17T20:05:44.231Z,100.00
2022-08-17T20:08:25.532Z,100.00
2022-08-17T20:10:59.481Z,100.00
2022-08-17T20:13:35.193Z,100.00
2022-08-17T20:16:05.407Z,100.00
2022-08-17T20:18:47.518Z,100.00
2022-08-17T20:21:23.412Z,100.00
2022-08-17T20:23:57.043Z,100.00
2022-08-17T20:26:30.935Z,100.00
2022-08-17T20:29:36.930Z,100.00
2022-08-17T20:32:29.997Z,100.00
2022-08-17T20:35:21.078Z,100.00
2022-08-17T20:38:01.748Z,100.00
2022-08-17T20:40:38.472Z,100.00
2022-08-17T20:43:46.307Z,100.00
2022-08-17T20:46:29.478Z,100.00
2022-08-17T20:49:20.583Z,100.00
2022-08-17T20:52:02.981Z,100.00
2022-08-17T20:54:49.135Z,100.00
2022-08-17T20:57:47.591Z,100.00
2022-08-17T21:00:45.536Z,100.00
2022-08-17T21:03:51.281Z,100.00
2022-08-17T21:06:28.456Z,100.00
2022-08-17T21:09:20.991Z,100.00
2022-08-17T21:12:04.343Z,100.00
2022-08-17T21:14:58.267Z,100.00
2022-08-17T21:17:42.150Z,100.00
2022-08-17T21:20:27.832Z,100.00
2022-08-17T21:23:30.060Z,100.00
2022-08-17T21:26:28.106Z,100.00
2022-08-17T21:29:30.943Z,100.00
2022-08-17T21:32:24.736Z,100.00
2022-08-17T21:35:25.086Z,100.00
2022-08-17T21:38:00.521Z,100.00
2022-08-17T21:40:33.366Z,100.00
2022-08-17T21:43:20.310Z,100.00
2022-08-17T21:45:57.929Z,100.00
2022-08-17T21:48:30.066Z,100.00
2022-08-17T21:51:05.991Z,100.00
2022-08-17T21:53:42.306Z,100.00
2022-08-17T21:56:14.989Z,100.00
2022-08-17T21:58:48.694Z,100.00
2022-08-17T22:01:25.746Z,100.00
2022-08-17T22:04:09.103Z,100.00
2022-08-17T22:06:41.558Z,100.00
2022-08-17T22:09:19.111Z,100.00
2022-08-17T22:11:55.184Z,100.00
2022-08-17T22:14:53.444Z,100.00
2022-08-17T22:17:21.040Z,100.00
2022-08-17T22:19:54.765Z,100.00
2022-08-17T22:22:31.039Z,100.00
2022-08-17T22:25:04.326Z,100.00
2022-08-17T22:28:04.067Z,100.00
2022-08-17T22:30:39.893Z,100.00
2022-08-17T22:33:31.709Z,100.00
2022-08-17T22:36:13.131Z,100.00
2022-08-17T22:38:43.607Z,100.00
2022-08-17T22:41:37.123Z,100.00
2022-08-17T22:44:23.691Z,100.00
2022-08-17T22:47:00.436Z,100.00
2022-08-17T22:49:33.883Z,100.00
2022-08-17T22:52:08.711Z,100.00
2022-08-17T22:54:55.261Z,100.00
2022-08-17T22:57:51.901Z,100.00
2022-08-17T23:00:34.651Z,100.00
2022-08-17T23:03:14.085Z,100.00
2022-08-17T23:05:45.776Z,100.00
2022-08-17T23:08:15.466Z,100.00
2022-08-17T23:10:46.701Z,100.00
2022-08-17T23:13:15.585Z,100.00
2022-08-17T23:15:44.788Z,100.00
2022-08-17T23:18:15.014Z,100.00
2022-08-17T23:20:44.068Z,100.00
2022-08-17T23:23:15.380Z,100.00
2022-08-17T23:25:46.939Z,100.00
2022-08-17T23:28:17.164Z,100.00
2022-08-17T23:30:49.038Z,100.00
2022-08-17T23:33:26.284Z,100.00
2022-08-17T23:35:55.310Z,100.00
2022-08-17T23:38:25.644Z,100.00
2022-08-17T23:40:54.795Z,100.00
2022-08-17T23:43:28.144Z,100.00
2022-08-17T23:45:59.958Z,100.00
2022-08-17T23:48:36.571Z,100.00
2022-08-17T23:51:13.993Z,100.00
2022-08-17T23:53:47.864Z,100.00
2022-08-17T23:56:20.813Z,100.00
2022-08-17T23:58:49.689Z,100.00
